sensor_id;sensor_type;location;lat;lon;timestamp;temperature;humidity
2539;DHT22;1280;49.760;9.664;2023-05-07T00:02:35;16.70;74.30
2539;DHT22;1280;49.760;9.664;2023-05-07T00:05:17;16.70;74.40
2539;DHT22;1280;49.760;9.664;2023-05-07T00:07:49;16.70;74.40
2539;DHT22;1280;49.760;9.664;2023-05-07T00:10:19;16.70;74.30
2539;DHT22;1280;49.760;9.664;2023-05-07T00:12:53;16.60;74.30
2539;DHT22;1280;49.760;9.664;2023-05-07T00:15:28;16.60;74.40
2539;DHT22;1280;49.760;9.664;2023-05-07T00:18:08;16.60;74.40
2539;DHT22;1280;49.760;9.664;2023-05-07T00:20:42;16.50;74.40
2539;DHT22;1280;49.760;9.664;2023-05-07T00:23:16;16.50;74.50
2539;DHT22;1280;49.760;9.664;2023-05-07T00:25:53;16.50;74.60
2539;DHT22;1280;49.760;9.664;2023-05-07T00:28:46;16.50;74.50
2539;DHT22;1280;49.760;9.664;2023-05-07T00:31:18;16.50;74.60
2539;DHT22;1280;49.760;9.664;2023-05-07T00:33:54;16.50;74.70
2539;DHT22;1280;49.760;9.664;2023-05-07T00:36:29;16.50;74.70
2539;DHT22;1280;49.760;9.664;2023-05-07T00:39:04;16.40;74.70
2539;DHT22;1280;49.760;9.664;2023-05-07T00:41:38;16.40;74.80
2539;DHT22;1280;49.760;9.664;2023-05-07T00:44:19;16.40;74.80
2539;DHT22;1280;49.760;9.664;2023-05-07T00:46:55;16.40;74.80
2539;DHT22;1280;49.760;9.664;2023-05-07T00:49:37;16.40;74.80
2539;DHT22;1280;49.760;9.664;2023-05-07T00:52:10;16.40;74.70
2539;DHT22;1280;49.760;9.664;2023-05-07T00:54:50;16.30;74.70
2539;DHT22;1280;49.760;9.664;2023-05-07T00:57:39;16.30;74.70
2539;DHT22;1280;49.760;9.664;2023-05-07T01:00:12;16.30;74.80
2539;DHT22;1280;49.760;9.664;2023-05-07T01:02:49;16.30;74.70
2539;DHT22;1280;49.760;9.664;2023-05-07T01:05:29;16.20;74.70
2539;DHT22;1280;49.760;9.664;2023-05-07T01:08:07;16.20;74.70
2539;DHT22;1280;49.760;9.664;2023-05-07T01:10:56;16.10;74.70
2539;DHT22;1280;49.760;9.664;2023-05-07T01:13:31;16.10;74.70
2539;DHT22;1280;49.760;9.664;2023-05-07T01:16:18;16.00;74.80
2539;DHT22;1280;49.760;9.664;2023-05-07T01:18:52;16.00;74.80
2539;DHT22;1280;49.760;9.664;2023-05-07T01:21:35;15.90;74.80
2539;DHT22;1280;49.760;9.664;2023-05-07T01:24:10;15.90;74.80
2539;DHT22;1280;49.760;9.664;2023-05-07T01:26:45;15.90;74.90
2539;DHT22;1280;49.760;9.664;2023-05-07T01:29:22;15.90;75.00
2539;DHT22;1280;49.760;9.664;2023-05-07T01:32:02;15.90;75.00
2539;DHT22;1280;49.760;9.664;2023-05-07T01:34:34;15.90;75.00
2539;DHT22;1280;49.760;9.664;2023-05-07T01:37:08;15.90;74.90
2539;DHT22;1280;49.760;9.664;2023-05-07T01:39:53;15.80;74.80
2539;DHT22;1280;49.760;9.664;2023-05-07T01:42:24;15.80;75.00
2539;DHT22;1280;49.760;9.664;2023-05-07T01:44:57;15.80;75.10
2539;DHT22;1280;49.760;9.664;2023-05-07T01:47:31;15.80;75.00
2539;DHT22;1280;49.760;9.664;2023-05-07T01:50:02;15.80;75.00
2539;DHT22;1280;49.760;9.664;2023-05-07T01:52:38;15.80;75.00
2539;DHT22;1280;49.760;9.664;2023-05-07T01:55:27;15.80;74.90
2539;DHT22;1280;49.760;9.664;2023-05-07T01:58:03;15.80;74.70
2539;DHT22;1280;49.760;9.664;2023-05-07T02:00:39;15.80;74.70
2539;DHT22;1280;49.760;9.664;2023-05-07T02:03:14;15.70;74.70
2539;DHT22;1280;49.760;9.664;2023-05-07T02:05:54;15.70;74.70
2539;DHT22;1280;49.760;9.664;2023-05-07T02:08:38;15.70;74.80
2539;DHT22;1280;49.760;9.664;2023-05-07T02:11:26;15.70;74.80
2539;DHT22;1280;49.760;9.664;2023-05-07T02:13:57;15.70;74.80
2539;DHT22;1280;49.760;9.664;2023-05-07T02:16:30;15.60;74.90
2539;DHT22;1280;49.760;9.664;2023-05-07T02:18:59;15.70;74.90
2539;DHT22;1280;49.760;9.664;2023-05-07T02:21:32;15.70;74.90
2539;DHT22;1280;49.760;9.664;2023-05-07T02:24:04;15.60;75.00
2539;DHT22;1280;49.760;9.664;2023-05-07T02:26:50;15.60;74.90
2539;DHT22;1280;49.760;9.664;2023-05-07T02:29:25;15.60;74.90
2539;DHT22;1280;49.760;9.664;2023-05-07T02:32:04;15.50;75.00
2539;DHT22;1280;49.760;9.664;2023-05-07T02:34:41;15.50;75.10
2539;DHT22;1280;49.760;9.664;2023-05-07T02:37:18;15.50;75.10
2539;DHT22;1280;49.760;9.664;2023-05-07T02:39:51;15.50;75.20
2539;DHT22;1280;49.760;9.664;2023-05-07T02:42:35;15.50;75.30
2539;DHT22;1280;49.760;9.664;2023-05-07T02:45:10;15.50;75.40
2539;DHT22;1280;49.760;9.664;2023-05-07T02:47:44;15.50;75.40
2539;DHT22;1280;49.760;9.664;2023-05-07T02:50:22;15.50;75.50
2539;DHT22;1280;49.760;9.664;2023-05-07T02:52:57;15.60;75.50
2539;DHT22;1280;49.760;9.664;2023-05-07T02:55:29;15.60;75.50
2539;DHT22;1280;49.760;9.664;2023-05-07T02:58:15;15.60;75.50
2539;DHT22;1280;49.760;9.664;2023-05-07T03:00:49;15.60;75.60
2539;DHT22;1280;49.760;9.664;2023-05-07T03:03:45;15.60;75.60
2539;DHT22;1280;49.760;9.664;2023-05-07T03:06:18;15.60;75.60
2539;DHT22;1280;49.760;9.664;2023-05-07T03:08:51;15.60;75.70
2539;DHT22;1280;49.760;9.664;2023-05-07T03:11:31;15.60;75.70
2539;DHT22;1280;49.760;9.664;2023-05-07T03:14:15;15.60;75.70
2539;DHT22;1280;49.760;9.664;2023-05-07T03:16:52;15.60;75.80
2539;DHT22;1280;49.760;9.664;2023-05-07T03:19:33;15.70;75.90
2539;DHT22;1280;49.760;9.664;2023-05-07T03:22:03;15.70;75.90
2539;DHT22;1280;49.760;9.664;2023-05-07T03:24:36;15.70;75.90
2539;DHT22;1280;49.760;9.664;2023-05-07T03:27:15;15.70;75.90
2539;DHT22;1280;49.760;9.664;2023-05-07T03:29:47;15.70;75.80
2539;DHT22;1280;49.760;9.664;2023-05-07T03:32:17;15.70;75.70
2539;DHT22;1280;49.760;9.664;2023-05-07T03:34:54;15.70;75.80
2539;DHT22;1280;49.760;9.664;2023-05-07T03:37:33;15.70;75.80
2539;DHT22;1280;49.760;9.664;2023-05-07T03:40:06;15.70;75.80
2539;DHT22;1280;49.760;9.664;2023-05-07T03:42:51;15.70;75.80
2539;DHT22;1280;49.760;9.664;2023-05-07T03:45:37;15.60;75.80
2539;DHT22;1280;49.760;9.664;2023-05-07T03:48:17;15.60;75.80
2539;DHT22;1280;49.760;9.664;2023-05-07T03:50:58;15.60;75.80
2539;DHT22;1280;49.760;9.664;2023-05-07T03:53:34;15.60;75.80
2539;DHT22;1280;49.760;9.664;2023-05-07T03:56:07;15.60;75.70
2539;DHT22;1280;49.760;9.664;2023-05-07T03:58:47;15.50;75.80
2539;DHT22;1280;49.760;9.664;2023-05-07T04:01:24;15.50;75.90
2539;DHT22;1280;49.760;9.664;2023-05-07T04:04:04;15.50;76.00
2539;DHT22;1280;49.760;9.664;2023-05-07T04:06:46;15.50;76.00
2539;DHT22;1280;49.760;9.664;2023-05-07T04:09:17;15.60;75.90
2539;DHT22;1280;49.760;9.664;2023-05-07T04:11:51;15.60;75.80
2539;DHT22;1280;49.760;9.664;2023-05-07T04:14:33;15.60;75.80
2539;DHT22;1280;49.760;9.664;2023-05-07T04:17:24;15.50;75.80
2539;DHT22;1280;49.760;9.664;2023-05-07T04:19:56;15.50;75.70
2539;DHT22;1280;49.760;9.664;2023-05-07T04:22:38;15.50;75.70
2539;DHT22;1280;49.760;9.664;2023-05-07T04:25:12;15.50;75.80
2539;DHT22;1280;49.760;9.664;2023-05-07T04:27:50;15.50;75.80
2539;DHT22;1280;49.760;9.664;2023-05-07T04:30:26;15.50;75.90
2539;DHT22;1280;49.760;9.664;2023-05-07T04:33:06;15.50;75.90
2539;DHT22;1280;49.760;9.664;2023-05-07T04:35:41;15.50;75.90
2539;DHT22;1280;49.760;9.664;2023-05-07T04:38:18;15.50;76.00
2539;DHT22;1280;49.760;9.664;2023-05-07T04:40:54;15.60;76.00
2539;DHT22;1280;49.760;9.664;2023-05-07T04:43:29;15.60;76.00
2539;DHT22;1280;49.760;9.664;2023-05-07T04:46:02;15.60;76.00
2539;DHT22;1280;49.760;9.664;2023-05-07T04:48:37;15.60;76.00
2539;DHT22;1280;49.760;9.664;2023-05-07T04:51:13;15.70;76.00
2539;DHT22;1280;49.760;9.664;2023-05-07T04:53:51;15.70;76.00
2539;DHT22;1280;49.760;9.664;2023-05-07T04:56:27;15.70;76.00
2539;DHT22;1280;49.760;9.664;2023-05-07T04:59:13;15.80;76.00
2539;DHT22;1280;49.760;9.664;2023-05-07T05:01:46;15.80;76.10
2539;DHT22;1280;49.760;9.664;2023-05-07T05:04:29;15.80;76.00
2539;DHT22;1280;49.760;9.664;2023-05-07T05:07:07;15.80;76.00
2539;DHT22;1280;49.760;9.664;2023-05-07T05:09:39;15.80;76.00
2539;DHT22;1280;49.760;9.664;2023-05-07T05:12:09;15.80;76.10
2539;DHT22;1280;49.760;9.664;2023-05-07T05:14:50;15.90;76.30
2539;DHT22;1280;49.760;9.664;2023-05-07T05:17:26;15.90;76.40
2539;DHT22;1280;49.760;9.664;2023-05-07T05:20:10;15.90;76.50
2539;DHT22;1280;49.760;9.664;2023-05-07T05:22:48;16.00;76.60
2539;DHT22;1280;49.760;9.664;2023-05-07T05:25:29;16.00;76.70
2539;DHT22;1280;49.760;9.664;2023-05-07T05:28:02;16.00;76.70
2539;DHT22;1280;49.760;9.664;2023-05-07T05:30:36;16.10;76.70
2539;DHT22;1280;49.760;9.664;2023-05-07T05:33:14;16.20;76.70
2539;DHT22;1280;49.760;9.664;2023-05-07T05:35:59;16.20;76.80
2539;DHT22;1280;49.760;9.664;2023-05-07T05:38:32;16.30;76.90
2539;DHT22;1280;49.760;9.664;2023-05-07T05:41:12;16.20;77.00
2539;DHT22;1280;49.760;9.664;2023-05-07T05:43:44;16.30;77.10
2539;DHT22;1280;49.760;9.664;2023-05-07T05:46:18;16.30;77.20
2539;DHT22;1280;49.760;9.664;2023-05-07T05:48:53;16.30;77.30
2539;DHT22;1280;49.760;9.664;2023-05-07T05:51:34;16.40;77.30
2539;DHT22;1280;49.760;9.664;2023-05-07T05:54:07;16.40;77.40
2539;DHT22;1280;49.760;9.664;2023-05-07T05:56:38;16.40;77.40
2539;DHT22;1280;49.760;9.664;2023-05-07T05:59:14;16.40;77.40
2539;DHT22;1280;49.760;9.664;2023-05-07T06:02:03;16.40;77.30
2539;DHT22;1280;49.760;9.664;2023-05-07T06:04:39;16.40;77.20
2539;DHT22;1280;49.760;9.664;2023-05-07T06:07:21;16.40;77.20
2539;DHT22;1280;49.760;9.664;2023-05-07T06:09:54;16.30;77.20
2539;DHT22;1280;49.760;9.664;2023-05-07T06:12:32;16.30;77.20
2539;DHT22;1280;49.760;9.664;2023-05-07T06:15:07;16.40;77.30
2539;DHT22;1280;49.760;9.664;2023-05-07T06:17:47;16.40;77.40
2539;DHT22;1280;49.760;9.664;2023-05-07T06:20:30;16.40;77.30
2539;DHT22;1280;49.760;9.664;2023-05-07T06:23:03;16.50;77.30
2539;DHT22;1280;49.760;9.664;2023-05-07T06:25:52;16.50;77.20
2539;DHT22;1280;49.760;9.664;2023-05-07T06:28:29;16.50;76.90
2539;DHT22;1280;49.760;9.664;2023-05-07T06:31:13;16.50;76.90
2539;DHT22;1280;49.760;9.664;2023-05-07T06:34:03;16.60;76.90
2539;DHT22;1280;49.760;9.664;2023-05-07T06:36:47;16.50;76.90
2539;DHT22;1280;49.760;9.664;2023-05-07T06:39:45;16.50;76.90
2539;DHT22;1280;49.760;9.664;2023-05-07T06:42:29;16.50;77.00
2539;DHT22;1280;49.760;9.664;2023-05-07T06:45:44;16.50;77.10
2539;DHT22;1280;49.760;9.664;2023-05-07T06:48:18;16.50;77.10
2539;DHT22;1280;49.760;9.664;2023-05-07T06:51:01;16.60;76.90
2539;DHT22;1280;49.760;9.664;2023-05-07T06:53:34;16.70;76.90
2539;DHT22;1280;49.760;9.664;2023-05-07T06:56:09;16.70;76.60
2539;DHT22;1280;49.760;9.664;2023-05-07T06:58:45;16.80;76.60
2539;DHT22;1280;49.760;9.664;2023-05-07T07:01:19;16.80;76.40
2539;DHT22;1280;49.760;9.664;2023-05-07T07:03:55;16.90;76.40
2539;DHT22;1280;49.760;9.664;2023-05-07T07:06:32;16.90;76.30
2539;DHT22;1280;49.760;9.664;2023-05-07T07:09:09;17.00;76.20
2539;DHT22;1280;49.760;9.664;2023-05-07T07:11:41;17.10;76.10
2539;DHT22;1280;49.760;9.664;2023-05-07T07:14:12;17.20;76.10
2539;DHT22;1280;49.760;9.664;2023-05-07T07:16:48;17.20;75.90
2539;DHT22;1280;49.760;9.664;2023-05-07T07:19:27;17.30;75.90
2539;DHT22;1280;49.760;9.664;2023-05-07T07:21:59;17.30;75.80
2539;DHT22;1280;49.760;9.664;2023-05-07T07:24:33;17.40;75.50
2539;DHT22;1280;49.760;9.664;2023-05-07T07:27:08;17.50;75.30
2539;DHT22;1280;49.760;9.664;2023-05-07T07:29:39;17.50;75.10
2539;DHT22;1280;49.760;9.664;2023-05-07T07:32:10;17.50;75.00
2539;DHT22;1280;49.760;9.664;2023-05-07T07:34:45;17.60;74.80
2539;DHT22;1280;49.760;9.664;2023-05-07T07:37:25;17.60;74.60
2539;DHT22;1280;49.760;9.664;2023-05-07T07:40:01;17.70;74.30
2539;DHT22;1280;49.760;9.664;2023-05-07T07:42:40;17.70;74.10
2539;DHT22;1280;49.760;9.664;2023-05-07T07:45:15;17.70;73.90
2539;DHT22;1280;49.760;9.664;2023-05-07T07:47:48;17.70;73.90
2539;DHT22;1280;49.760;9.664;2023-05-07T07:50:22;17.70;73.70
2539;DHT22;1280;49.760;9.664;2023-05-07T07:53:14;17.70;73.60
2539;DHT22;1280;49.760;9.664;2023-05-07T07:55:46;17.70;73.60
2539;DHT22;1280;49.760;9.664;2023-05-07T07:58:28;17.70;73.70
2539;DHT22;1280;49.760;9.664;2023-05-07T08:01:03;17.70;73.70
2539;DHT22;1280;49.760;9.664;2023-05-07T08:03:41;17.70;73.70
2539;DHT22;1280;49.760;9.664;2023-05-07T08:06:15;17.70;73.70
2539;DHT22;1280;49.760;9.664;2023-05-07T08:08:48;17.80;73.70
2539;DHT22;1280;49.760;9.664;2023-05-07T08:11:26;17.80;73.60
2539;DHT22;1280;49.760;9.664;2023-05-07T08:14:04;17.90;73.50
2539;DHT22;1280;49.760;9.664;2023-05-07T08:16:39;17.90;73.50
2539;DHT22;1280;49.760;9.664;2023-05-07T08:19:15;18.00;73.40
2539;DHT22;1280;49.760;9.664;2023-05-07T08:21:48;18.00;73.40
2539;DHT22;1280;49.760;9.664;2023-05-07T08:24:24;18.00;73.40
2539;DHT22;1280;49.760;9.664;2023-05-07T08:26:57;18.00;73.40
2539;DHT22;1280;49.760;9.664;2023-05-07T08:29:42;18.10;73.30
2539;DHT22;1280;49.760;9.664;2023-05-07T08:32:20;18.10;73.20
2539;DHT22;1280;49.760;9.664;2023-05-07T08:34:54;18.10;73.20
2539;DHT22;1280;49.760;9.664;2023-05-07T08:37:23;18.10;73.10
2539;DHT22;1280;49.760;9.664;2023-05-07T08:40:02;18.20;73.10
2539;DHT22;1280;49.760;9.664;2023-05-07T08:42:41;18.20;73.10
2539;DHT22;1280;49.760;9.664;2023-05-07T08:45:12;18.30;73.00
2539;DHT22;1280;49.760;9.664;2023-05-07T08:47:58;18.30;73.00
2539;DHT22;1280;49.760;9.664;2023-05-07T08:50:37;18.40;72.90
2539;DHT22;1280;49.760;9.664;2023-05-07T08:53:18;18.50;72.70
2539;DHT22;1280;49.760;9.664;2023-05-07T08:55:53;18.50;72.70
2539;DHT22;1280;49.760;9.664;2023-05-07T08:58:29;18.50;72.60
2539;DHT22;1280;49.760;9.664;2023-05-07T09:01:13;18.60;72.50
2539;DHT22;1280;49.760;9.664;2023-05-07T09:03:55;18.60;72.40
2539;DHT22;1280;49.760;9.664;2023-05-07T09:06:29;18.70;72.50
2539;DHT22;1280;49.760;9.664;2023-05-07T09:09:16;18.80;72.40
2539;DHT22;1280;49.760;9.664;2023-05-07T09:11:57;18.90;72.20
2539;DHT22;1280;49.760;9.664;2023-05-07T09:14:36;18.90;72.00
2539;DHT22;1280;49.760;9.664;2023-05-07T09:17:15;18.90;72.00
2539;DHT22;1280;49.760;9.664;2023-05-07T09:19:45;18.90;72.00
2539;DHT22;1280;49.760;9.664;2023-05-07T09:22:21;18.90;72.10
2539;DHT22;1280;49.760;9.664;2023-05-07T09:24:58;18.90;72.00
2539;DHT22;1280;49.760;9.664;2023-05-07T09:27:35;19.00;72.00
2539;DHT22;1280;49.760;9.664;2023-05-07T09:30:13;19.00;72.10
2539;DHT22;1280;49.760;9.664;2023-05-07T09:32:57;19.10;72.00
2539;DHT22;1280;49.760;9.664;2023-05-07T09:35:30;19.10;72.00
2539;DHT22;1280;49.760;9.664;2023-05-07T09:38:09;19.20;72.00
2539;DHT22;1280;49.760;9.664;2023-05-07T09:40:43;19.30;71.70
2539;DHT22;1280;49.760;9.664;2023-05-07T09:43:17;19.30;71.70
2539;DHT22;1280;49.760;9.664;2023-05-07T09:45:58;19.30;71.60
2539;DHT22;1280;49.760;9.664;2023-05-07T09:48:44;19.30;71.80
2539;DHT22;1280;49.760;9.664;2023-05-07T09:51:22;19.40;71.80
2539;DHT22;1280;49.760;9.664;2023-05-07T09:54:01;19.50;71.80
2539;DHT22;1280;49.760;9.664;2023-05-07T09:56:40;19.60;71.60
2539;DHT22;1280;49.760;9.664;2023-05-07T09:59:17;19.70;71.40
2539;DHT22;1280;49.760;9.664;2023-05-07T10:02:06;19.70;71.20
2539;DHT22;1280;49.760;9.664;2023-05-07T10:04:46;19.80;71.00
2539;DHT22;1280;49.760;9.664;2023-05-07T10:07:23;19.90;70.90
2539;DHT22;1280;49.760;9.664;2023-05-07T10:10:09;19.90;71.00
2539;DHT22;1280;49.760;9.664;2023-05-07T10:12:42;19.90;70.90
2539;DHT22;1280;49.760;9.664;2023-05-07T10:15:33;20.00;70.80
2539;DHT22;1280;49.760;9.664;2023-05-07T10:18:08;20.00;70.80
2539;DHT22;1280;49.760;9.664;2023-05-07T10:20:44;20.10;70.70
2539;DHT22;1280;49.760;9.664;2023-05-07T10:23:23;20.10;70.50
2539;DHT22;1280;49.760;9.664;2023-05-07T10:25:58;20.10;70.40
2539;DHT22;1280;49.760;9.664;2023-05-07T10:28:33;20.10;70.30
2539;DHT22;1280;49.760;9.664;2023-05-07T10:34:17;20.30;70.50
2539;DHT22;1280;49.760;9.664;2023-05-07T10:36:59;20.40;70.50
2539;DHT22;1280;49.760;9.664;2023-05-07T10:39:34;20.40;70.30
2539;DHT22;1280;49.760;9.664;2023-05-07T10:42:12;20.50;70.10
2539;DHT22;1280;49.760;9.664;2023-05-07T10:44:50;20.50;70.00
2539;DHT22;1280;49.760;9.664;2023-05-07T10:47:29;20.50;69.90
2539;DHT22;1280;49.760;9.664;2023-05-07T10:50:21;20.50;69.90
2539;DHT22;1280;49.760;9.664;2023-05-07T10:53:25;20.50;69.70
2539;DHT22;1280;49.760;9.664;2023-05-07T10:56:32;20.50;69.70
2539;DHT22;1280;49.760;9.664;2023-05-07T10:59:31;20.50;69.80
2539;DHT22;1280;49.760;9.664;2023-05-07T11:02:18;20.60;69.60
2539;DHT22;1280;49.760;9.664;2023-05-07T11:05:21;20.60;69.60
2539;DHT22;1280;49.760;9.664;2023-05-07T11:08:16;20.60;69.60
2539;DHT22;1280;49.760;9.664;2023-05-07T11:11:15;20.70;69.50
2539;DHT22;1280;49.760;9.664;2023-05-07T11:14:09;20.80;69.30
2539;DHT22;1280;49.760;9.664;2023-05-07T11:17:02;20.80;69.00
2539;DHT22;1280;49.760;9.664;2023-05-07T11:19:53;20.90;68.80
2539;DHT22;1280;49.760;9.664;2023-05-07T11:22:59;20.90;68.70
2539;DHT22;1280;49.760;9.664;2023-05-07T11:25:41;21.00;68.70
2539;DHT22;1280;49.760;9.664;2023-05-07T11:28:26;21.00;68.40
2539;DHT22;1280;49.760;9.664;2023-05-07T11:31:06;21.10;68.20
2539;DHT22;1280;49.760;9.664;2023-05-07T11:33:49;21.10;68.10
2539;DHT22;1280;49.760;9.664;2023-05-07T11:36:24;21.20;68.10
2539;DHT22;1280;49.760;9.664;2023-05-07T11:38:55;21.20;67.90
2539;DHT22;1280;49.760;9.664;2023-05-07T11:41:34;21.30;67.80
2539;DHT22;1280;49.760;9.664;2023-05-07T11:44:17;21.30;67.70
2539;DHT22;1280;49.760;9.664;2023-05-07T11:46:52;21.40;67.40
2539;DHT22;1280;49.760;9.664;2023-05-07T11:49:30;21.40;67.40
2539;DHT22;1280;49.760;9.664;2023-05-07T11:52:03;21.50;67.40
2539;DHT22;1280;49.760;9.664;2023-05-07T11:54:52;21.60;67.20
2539;DHT22;1280;49.760;9.664;2023-05-07T11:57:24;21.70;66.90
2539;DHT22;1280;49.760;9.664;2023-05-07T12:00:07;21.70;67.10
2539;DHT22;1280;49.760;9.664;2023-05-07T12:02:54;21.80;67.00
2539;DHT22;1280;49.760;9.664;2023-05-07T12:05:29;21.80;66.80
2539;DHT22;1280;49.760;9.664;2023-05-07T12:08:04;21.90;66.60
2539;DHT22;1280;49.760;9.664;2023-05-07T12:10:42;21.90;66.40
2539;DHT22;1280;49.760;9.664;2023-05-07T12:13:21;21.90;66.20
2539;DHT22;1280;49.760;9.664;2023-05-07T12:15:58;22.00;66.10
2539;DHT22;1280;49.760;9.664;2023-05-07T12:18:36;22.00;66.00
2539;DHT22;1280;49.760;9.664;2023-05-07T12:21:07;22.10;66.00
2539;DHT22;1280;49.760;9.664;2023-05-07T12:23:38;22.10;66.00
2539;DHT22;1280;49.760;9.664;2023-05-07T12:26:21;22.20;65.70
2539;DHT22;1280;49.760;9.664;2023-05-07T12:28:52;22.20;65.50
2539;DHT22;1280;49.760;9.664;2023-05-07T12:31:29;22.20;65.50
2539;DHT22;1280;49.760;9.664;2023-05-07T12:34:04;22.20;65.40
2539;DHT22;1280;49.760;9.664;2023-05-07T12:36:38;22.30;65.30
2539;DHT22;1280;49.760;9.664;2023-05-07T12:39:19;22.30;64.90
2539;DHT22;1280;49.760;9.664;2023-05-07T12:41:56;22.40;64.70
2539;DHT22;1280;49.760;9.664;2023-05-07T12:44:32;22.50;64.40
2539;DHT22;1280;49.760;9.664;2023-05-07T12:47:10;22.50;64.40
2539;DHT22;1280;49.760;9.664;2023-05-07T12:49:47;22.60;64.30
2539;DHT22;1280;49.760;9.664;2023-05-07T12:52:27;22.60;64.40
2539;DHT22;1280;49.760;9.664;2023-05-07T12:55:05;22.60;64.20
2539;DHT22;1280;49.760;9.664;2023-05-07T12:57:41;22.70;63.70
2539;DHT22;1280;49.760;9.664;2023-05-07T13:00:35;22.70;63.80
2539;DHT22;1280;49.760;9.664;2023-05-07T13:03:11;22.80;63.60
2539;DHT22;1280;49.760;9.664;2023-05-07T13:05:44;22.80;63.30
2539;DHT22;1280;49.760;9.664;2023-05-07T13:08:29;22.90;63.00
2539;DHT22;1280;49.760;9.664;2023-05-07T13:11:06;22.90;62.80
2539;DHT22;1280;49.760;9.664;2023-05-07T13:13:45;22.90;62.70
2539;DHT22;1280;49.760;9.664;2023-05-07T13:16:21;22.90;62.50
2539;DHT22;1280;49.760;9.664;2023-05-07T13:19:11;22.90;62.50
2539;DHT22;1280;49.760;9.664;2023-05-07T13:21:49;22.90;62.20
2539;DHT22;1280;49.760;9.664;2023-05-07T13:24:27;23.00;62.00
2539;DHT22;1280;49.760;9.664;2023-05-07T13:26:59;23.10;61.80
2539;DHT22;1280;49.760;9.664;2023-05-07T13:29:36;23.10;61.60
2539;DHT22;1280;49.760;9.664;2023-05-07T13:32:08;23.10;61.30
2539;DHT22;1280;49.760;9.664;2023-05-07T13:34:49;23.10;61.30
2539;DHT22;1280;49.760;9.664;2023-05-07T13:37:18;23.20;60.80
2539;DHT22;1280;49.760;9.664;2023-05-07T13:39:49;23.10;60.70
2539;DHT22;1280;49.760;9.664;2023-05-07T13:42:31;23.20;60.70
2539;DHT22;1280;49.760;9.664;2023-05-07T13:45:03;23.20;60.70
2539;DHT22;1280;49.760;9.664;2023-05-07T13:47:40;23.20;60.50
2539;DHT22;1280;49.760;9.664;2023-05-07T13:50:20;23.20;60.30
2539;DHT22;1280;49.760;9.664;2023-05-07T13:52:50;23.20;60.20
2539;DHT22;1280;49.760;9.664;2023-05-07T13:55:23;23.30;59.90
2539;DHT22;1280;49.760;9.664;2023-05-07T13:57:57;23.30;59.70
2539;DHT22;1280;49.760;9.664;2023-05-07T14:00:28;23.30;59.60
2539;DHT22;1280;49.760;9.664;2023-05-07T14:03:05;23.30;59.50
2539;DHT22;1280;49.760;9.664;2023-05-07T14:05:42;23.40;59.40
2539;DHT22;1280;49.760;9.664;2023-05-07T14:08:21;23.40;59.10
2539;DHT22;1280;49.760;9.664;2023-05-07T14:11:02;23.40;59.00
2539;DHT22;1280;49.760;9.664;2023-05-07T14:13:40;23.40;59.10
2539;DHT22;1280;49.760;9.664;2023-05-07T14:16:18;23.40;58.90
2539;DHT22;1280;49.760;9.664;2023-05-07T14:18:54;23.30;58.80
2539;DHT22;1280;49.760;9.664;2023-05-07T14:21:39;23.30;58.80
2539;DHT22;1280;49.760;9.664;2023-05-07T14:24:10;23.30;58.70
2539;DHT22;1280;49.760;9.664;2023-05-07T14:26:39;23.30;58.60
2539;DHT22;1280;49.760;9.664;2023-05-07T14:29:13;23.40;58.60
2539;DHT22;1280;49.760;9.664;2023-05-07T14:31:52;23.40;58.30
2539;DHT22;1280;49.760;9.664;2023-05-07T14:34:24;23.50;58.40
2539;DHT22;1280;49.760;9.664;2023-05-07T14:37:04;23.50;58.30
2539;DHT22;1280;49.760;9.664;2023-05-07T14:39:45;23.50;58.30
2539;DHT22;1280;49.760;9.664;2023-05-07T14:42:17;23.40;58.10
2539;DHT22;1280;49.760;9.664;2023-05-07T14:44:48;23.40;58.10
2539;DHT22;1280;49.760;9.664;2023-05-07T14:47:24;23.40;58.00
2539;DHT22;1280;49.760;9.664;2023-05-07T14:50:01;23.40;57.90
2539;DHT22;1280;49.760;9.664;2023-05-07T14:52:36;23.30;57.80
2539;DHT22;1280;49.760;9.664;2023-05-07T14:55:06;23.30;57.80
2539;DHT22;1280;49.760;9.664;2023-05-07T14:57:45;23.30;57.90
2539;DHT22;1280;49.760;9.664;2023-05-07T15:00:19;23.30;57.90
2539;DHT22;1280;49.760;9.664;2023-05-07T15:02:57;23.20;58.00
2539;DHT22;1280;49.760;9.664;2023-05-07T15:05:32;23.20;57.90
2539;DHT22;1280;49.760;9.664;2023-05-07T15:08:09;23.10;57.90
2539;DHT22;1280;49.760;9.664;2023-05-07T15:10:38;23.10;57.90
2539;DHT22;1280;49.760;9.664;2023-05-07T15:13:09;23.20;57.80
2539;DHT22;1280;49.760;9.664;2023-05-07T15:15:44;23.10;57.90
2539;DHT22;1280;49.760;9.664;2023-05-07T15:18:18;23.10;58.20
2539;DHT22;1280;49.760;9.664;2023-05-07T15:20:49;23.10;58.30
2539;DHT22;1280;49.760;9.664;2023-05-07T15:23:23;23.00;58.30
2539;DHT22;1280;49.760;9.664;2023-05-07T15:25:51;23.00;58.50
2539;DHT22;1280;49.760;9.664;2023-05-07T15:28:31;23.00;58.60
2539;DHT22;1280;49.760;9.664;2023-05-07T15:31:07;22.90;58.80
2539;DHT22;1280;49.760;9.664;2023-05-07T15:33:37;22.90;59.10
2539;DHT22;1280;49.760;9.664;2023-05-07T15:36:08;22.90;59.10
2539;DHT22;1280;49.760;9.664;2023-05-07T15:38:57;23.00;59.30
2539;DHT22;1280;49.760;9.664;2023-05-07T15:41:35;23.00;59.50
2539;DHT22;1280;49.760;9.664;2023-05-07T15:44:07;22.90;59.70
2539;DHT22;1280;49.760;9.664;2023-05-07T15:46:43;22.90;59.80
2539;DHT22;1280;49.760;9.664;2023-05-07T15:49:24;22.90;59.90
2539;DHT22;1280;49.760;9.664;2023-05-07T15:52:05;22.90;60.10
2539;DHT22;1280;49.760;9.664;2023-05-07T15:54:42;22.80;60.20
2539;DHT22;1280;49.760;9.664;2023-05-07T15:57:16;22.80;60.40
2539;DHT22;1280;49.760;9.664;2023-05-07T15:59:54;22.70;60.50
2539;DHT22;1280;49.760;9.664;2023-05-07T16:02:50;22.70;60.60
2539;DHT22;1280;49.760;9.664;2023-05-07T16:05:33;22.70;60.70
2539;DHT22;1280;49.760;9.664;2023-05-07T16:08:10;22.60;60.90
2539;DHT22;1280;49.760;9.664;2023-05-07T16:10:52;22.60;61.00
2539;DHT22;1280;49.760;9.664;2023-05-07T16:13:24;22.60;61.10
2539;DHT22;1280;49.760;9.664;2023-05-07T16:16:05;22.50;61.30
2539;DHT22;1280;49.760;9.664;2023-05-07T16:18:36;22.50;61.30
2539;DHT22;1280;49.760;9.664;2023-05-07T16:21:07;22.50;61.30
2539;DHT22;1280;49.760;9.664;2023-05-07T16:23:36;22.50;61.40
2539;DHT22;1280;49.760;9.664;2023-05-07T16:26:15;22.40;61.50
2539;DHT22;1280;49.760;9.664;2023-05-07T16:28:45;22.40;61.50
2539;DHT22;1280;49.760;9.664;2023-05-07T16:31:17;22.40;61.50
2539;DHT22;1280;49.760;9.664;2023-05-07T16:33:53;22.30;61.50
2539;DHT22;1280;49.760;9.664;2023-05-07T16:36:26;22.30;61.60
2539;DHT22;1280;49.760;9.664;2023-05-07T16:39:04;22.30;61.70
2539;DHT22;1280;49.760;9.664;2023-05-07T16:41:54;22.30;61.80
2539;DHT22;1280;49.760;9.664;2023-05-07T16:44:33;22.20;61.90
2539;DHT22;1280;49.760;9.664;2023-05-07T16:47:13;22.20;62.00
2539;DHT22;1280;49.760;9.664;2023-05-07T16:49:42;22.20;62.00
2539;DHT22;1280;49.760;9.664;2023-05-07T16:52:14;22.20;62.20
2539;DHT22;1280;49.760;9.664;2023-05-07T16:54:53;22.20;62.30
2539;DHT22;1280;49.760;9.664;2023-05-07T16:57:28;22.20;62.40
2539;DHT22;1280;49.760;9.664;2023-05-07T17:00:00;22.20;62.80
2539;DHT22;1280;49.760;9.664;2023-05-07T17:02:43;22.20;63.00
2539;DHT22;1280;49.760;9.664;2023-05-07T17:05:15;22.10;63.20
2539;DHT22;1280;49.760;9.664;2023-05-07T17:07:48;22.00;63.60
2539;DHT22;1280;49.760;9.664;2023-05-07T17:10:19;21.90;63.90
2539;DHT22;1280;49.760;9.664;2023-05-07T17:12:54;21.70;64.20
2539;DHT22;1280;49.760;9.664;2023-05-07T17:15:24;21.60;64.90